Time;durP1;ratioP1;P1;durP2;ratioP2;P2;SDS_P1;SDS_P2;PMS_P1;PMS_P2;Temp;Humidity;BMP_temperature;BMP_pressure;BME280_temperature;BME280_humidity;BME280_pressure;Samples;Min_cycle;Max_cycle;Signal;HPM_P1;HPM_P2
2022/01/19 00:00:00;;;;;;;3.67;2.17;;;;;;;-145.06;0.00;60892.56;4855639;28;20029;-89
2022/01/19 00:02:39;;;;;;;3.10;2.10;;;;;;;10.68;0.00;60892.56;4868972;28;20053;-88
2022/01/19 00:05:18;;;;;;;2.65;2.17;;;;;;;187.52;0.00;60892.56;4861341;28;20036;-88
2022/01/19 00:07:57;;;;;;;2.23;1.77;;;;;;;-145.06;0.00;60892.56;4856245;28;20037;-89
2022/01/19 00:10:36;;;;;;;2.93;1.77;;;;;;;-145.06;0.00;60892.56;4855117;28;20276;-88
2022/01/19 00:13:16;;;;;;;2.42;1.75;;;;;;;-145.06;0.00;60892.56;4838598;28;20257;-89
2022/01/19 00:15:55;;;;;;;2.10;1.75;;;;;;;-145.06;0.00;60892.56;4856110;28;20029;-88
2022/01/19 00:18:34;;;;;;;2.53;1.83;;;;;;;-145.06;0.00;60892.56;4856117;28;20029;-89
2022/01/19 00:21:14;;;;;;;3.20;2.03;;;;;;;-145.06;0.00;60892.56;4855884;28;20037;-90
2022/01/19 00:23:53;;;;;;;2.70;1.90;;;;;;;-145.06;0.00;60892.56;4856605;28;20037;-88
2022/01/19 00:26:32;;;;;;;2.47;2.00;;;;;;;-145.06;0.00;60892.56;4869815;28;20021;-88
2022/01/19 00:29:10;;;;;;;2.63;1.93;;;;;;;-145.06;0.00;60892.56;4869567;28;20264;-88
2022/01/19 00:31:49;;;;;;;2.80;2.22;;;;;;;-145.06;0.00;60892.56;4851358;28;20037;-87
2022/01/19 00:34:28;;;;;;;2.57;2.13;;;;;;;-145.06;0.00;60892.56;4855856;28;20064;-88
2022/01/19 00:37:08;;;;;;;2.90;2.17;;;;;;;-145.06;0.00;60892.56;4855417;28;20029;-88
2022/01/19 00:39:47;;;;;;;4.47;2.70;;;;;;;-145.06;0.00;60892.56;4854970;28;20029;-87
2022/01/19 00:42:26;;;;;;;4.30;2.83;;;;;;;-145.06;0.00;60892.56;4855352;28;20029;-87
2022/01/19 00:45:06;;;;;;;4.32;2.97;;;;;;;-145.06;0.00;60892.56;4851811;28;20041;-89
2022/01/19 00:47:45;;;;;;;5.28;3.10;;;;;;;-145.06;0.00;60892.56;4855298;28;20030;-88
2022/01/19 00:50:27;;;;;;;4.20;2.67;;;;;;;4.84;0.00;60892.56;4855173;28;20029;-88
2022/01/19 00:53:06;;;;;;;4.00;2.63;;;;;;;-145.06;0.00;60892.56;4855828;28;20041;-88
2022/01/19 00:55:45;;;;;;;4.53;2.90;;;;;;;-145.06;0.00;60892.56;4855139;28;20037;-88
2022/01/19 00:58:25;;;;;;;4.55;2.67;;;;;;;-145.06;0.00;60892.56;4854495;28;20041;-88
2022/01/19 01:01:04;;;;;;;4.68;2.88;;;;;;;-145.06;0.00;60892.56;4854707;28;20451;-88
2022/01/19 01:03:43;;;;;;;4.87;3.10;;;;;;;4.13;0.00;60892.56;4854536;28;20241;-89
2022/01/19 01:06:22;;;;;;;4.38;2.70;;;;;;;5.49;0.00;60892.56;4866890;28;20021;-88
2022/01/19 01:09:02;;;;;;;4.78;2.65;;;;;;;187.52;0.00;60892.56;4863264;28;20478;-88
2022/01/19 01:11:58;;;;;;;3.40;2.40;;;;;;;-145.06;0.00;60892.56;4858818;28;20120;-89
2022/01/19 01:20:36;;;;;;;3.30;2.55;;;;;;;-145.06;0.00;60892.56;4858898;28;20112;-89
2022/01/19 01:23:16;;;;;;;2.97;2.20;;;;;;;-145.06;0.00;60892.56;4857923;28;20531;-89
2022/01/19 01:25:55;;;;;;;2.35;2.03;;;;;;;187.52;0.00;60892.56;4853981;28;20034;-88
2022/01/19 01:28:35;;;;;;;3.03;2.05;;;;;;;-145.06;0.00;60892.56;4858546;28;20049;-89
2022/01/19 01:31:14;;;;;;;3.05;1.65;;;;;;;-145.06;0.00;60892.56;4839632;28;20033;-88
2022/01/19 01:33:53;;;;;;;2.83;2.10;;;;;;;-145.06;0.00;60892.56;4840465;28;20629;-87
2022/01/19 01:36:32;;;;;;;2.78;2.00;;;;;;;-145.06;0.00;60892.56;4860642;28;20347;-88
2022/01/19 01:39:11;;;;;;;3.47;2.30;;;;;;;-145.06;0.00;60892.56;4858686;28;20045;-88
2022/01/19 01:41:50;;;;;;;2.95;2.15;;;;;;;-145.06;0.00;60892.56;4857902;28;20025;-88
2022/01/19 01:44:37;;;;;;;3.80;2.10;;;;;;;-145.06;0.00;60892.56;4870149;28;20044;-88
2022/01/19 01:47:18;;;;;;;2.35;1.85;;;;;;;4.06;0.00;60892.56;4851805;28;20375;-89
2022/01/19 01:55:35;;;;;;;4.05;1.83;;;;;;;-145.06;0.00;60892.56;4859635;28;20483;-88
2022/01/19 01:58:14;;;;;;;2.30;1.50;;;;;;;-145.06;0.00;60892.56;4858549;28;20053;-88
2022/01/19 02:00:55;;;;;;;1.73;1.40;;;;;;;-145.06;0.00;60892.56;4859122;28;20073;-88
2022/01/19 02:03:39;;;;;;;2.20;1.45;;;;;;;3.97;0.00;60892.56;4856671;28;20064;-89
2022/01/19 02:09:06;;;;;;;1.75;1.40;;;;;;;187.52;0.00;60892.56;4858943;28;20041;-88
2022/01/19 02:23:45;;;;;;;2.30;1.70;;;;;;;3.86;0.00;60892.56;4851532;28;20025;-88
2022/01/19 02:26:32;;;;;;;2.20;1.55;;;;;;;-145.06;0.00;60892.56;4856607;28;20518;-87
2022/01/19 02:29:24;;;;;;;1.75;1.60;;;;;;;-145.06;0.00;60892.56;4853241;28;20451;-89
2022/01/19 02:41:02;;;;;;;1.65;1.40;;;;;;;-145.06;0.00;60892.56;4865399;28;20046;-88
2022/01/19 02:43:46;;;;;;;2.00;1.63;;;;;;;21.08;0.00;60892.56;4857115;28;20044;-88
2022/01/19 02:49:22;;;;;;;1.67;1.48;;;;;;;-145.06;0.00;60892.56;4853852;28;20060;-89
2022/01/19 02:52:01;;;;;;;2.33;1.70;;;;;;;-145.06;0.00;60892.56;4867235;28;20038;-88
2022/01/19 02:54:40;;;;;;;2.40;1.77;;;;;;;-145.06;0.00;60892.56;4856677;28;20037;-89
2022/01/19 02:57:24;;;;;;;1.90;1.63;;;;;;;-145.06;0.00;60892.56;4858459;28;20026;-89
2022/01/19 03:08:43;;;;;;;;;;;;;;;;;;;;;
2022/01/19 03:09:06;;;;;;;2.28;1.50;;;;;;;-145.06;0.00;60892.56;4838666;28;20030;-87
2022/01/19 03:11:45;;;;;;;1.88;1.58;;;;;;;-145.06;0.00;60892.56;4842516;28;20021;-89
2022/01/19 03:14:24;;;;;;;1.85;1.33;;;;;;;-145.06;0.00;60892.56;4849539;28;20038;-89
2022/01/19 03:17:05;;;;;;;1.77;1.45;;;;;;;-145.06;0.00;60892.56;4867410;28;20029;-88
2022/01/19 03:19:45;;;;;;;1.27;1.17;;;;;;;-145.06;0.00;60892.56;4856216;28;21904;-88
2022/01/19 03:22:31;;;;;;;2.08;1.65;;;;;;;10.68;0.00;60892.56;4857618;28;20029;-88
2022/01/19 03:25:12;;;;;;;2.20;1.60;;;;;;;-145.06;0.00;60892.56;4846413;28;20029;-89
2022/01/19 03:27:52;;;;;;;1.60;1.50;;;;;;;-145.06;0.00;60892.56;4855295;28;20041;-88
2022/01/19 03:30:31;;;;;;;2.53;1.95;;;;;;;-145.06;0.00;60892.56;4849378;28;20112;-87
2022/01/19 03:33:10;;;;;;;2.50;1.90;;;;;;;-145.06;0.00;60892.56;4856082;28;20108;-88
2022/01/19 03:35:49;;;;;;;1.80;1.50;;;;;;;-145.06;0.00;60892.56;4852436;28;20475;-89
2022/01/19 03:38:28;;;;;;;1.77;1.57;;;;;;;-145.06;0.00;60892.56;4856395;28;20415;-88
2022/01/19 03:41:07;;;;;;;1.83;1.60;;;;;;;-145.06;0.00;60892.56;4856654;28;20550;-89
2022/01/19 03:43:46;;;;;;;2.00;1.77;;;;;;;-145.06;0.00;60892.56;4856657;28;20144;-88
2022/01/19 03:46:33;;;;;;;1.92;1.67;;;;;;;-145.06;0.00;60892.56;4856064;28;20034;-88
2022/01/19 03:49:20;;;;;;;2.00;1.65;;;;;;;-145.06;0.00;60892.56;4856084;28;20042;-89
2022/01/19 03:52:03;;;;;;;1.98;1.63;;;;;;;-145.06;0.00;60892.56;4856825;28;20030;-88
2022/01/19 03:54:44;;;;;;;1.90;1.60;;;;;;;-145.06;0.00;60892.56;4858507;28;20037;-88
2022/01/19 03:57:23;;;;;;;1.83;1.60;;;;;;;-145.06;0.00;60892.56;4873046;28;20037;-89
2022/01/19 04:00:05;;;;;;;1.65;1.45;;;;;;;-145.06;0.00;60892.56;4865850;28;20041;-88
2022/01/19 04:02:44;;;;;;;1.90;1.50;;;;;;;-145.06;0.00;60892.56;4856337;28;20041;-88
2022/01/19 04:05:36;;;;;;;1.73;1.60;;;;;;;-145.06;0.00;60892.56;4865370;28;20026;-89
2022/01/19 04:08:15;;;;;;;1.17;1.08;;;;;;;-145.06;0.00;60892.56;4870858;28;20351;-88
2022/01/19 04:10:54;;;;;;;1.65;1.20;;;;;;;-145.06;0.00;60892.56;4861731;28;20045;-88
2022/01/19 04:13:57;;;;;;;1.77;1.53;;;;;;;-145.06;0.00;60892.56;4848630;28;20033;-89
2022/01/19 04:16:32;;;;;;;2.30;1.70;;;;;;;-145.06;0.00;60892.56;4866144;28;20726;-88
2022/01/19 04:19:23;;;;;;;2.33;1.67;;;;;;;-145.06;0.00;60892.56;4856490;28;20073;-88
2022/01/19 04:22:06;;;;;;;2.47;1.60;;;;;;;-145.06;0.00;60892.56;4854893;28;20025;-88
2022/01/19 04:24:46;;;;;;;1.77;1.48;;;;;;;-145.06;0.00;60892.56;4854982;28;20453;-89
2022/01/19 04:30:11;;;;;;;1.85;1.40;;;;;;;-145.06;0.00;60892.56;4852461;28;20034;-89
2022/01/19 04:33:03;;;;;;;2.85;1.80;;;;;;;-145.06;0.00;60892.56;4851131;28;20037;-87
2022/01/19 04:35:50;;;;;;;2.13;1.90;;;;;;;-145.06;0.00;60892.56;4853375;28;20112;-88
2022/01/19 04:47:39;;;;;;;2.38;1.73;;;;;;;-145.06;0.00;60892.56;4853580;28;20061;-87
2022/01/19 05:02:21;;;;;;;1.85;1.60;;;;;;;-145.06;0.00;60892.56;4854648;28;20045;-88
2022/01/19 05:13:32;;;;;;;3.03;1.67;;;;;;;-145.06;0.00;60892.56;4852660;28;20033;-88
2022/01/19 05:16:11;;;;;;;1.98;1.67;;;;;;;-145.06;0.00;60892.56;4854196;28;20021;-88
2022/01/19 05:18:51;;;;;;;2.20;1.90;;;;;;;-145.06;0.00;60892.56;4853744;28;20033;-88
2022/01/19 05:21:30;;;;;;;;;;;;;;;-145.06;0.00;60892.56;4865191;28;20280;-89
2022/01/19 05:24:09;;;;;;;2.17;1.63;;;;;;;-145.06;0.00;60892.56;4863042;28;19920;-89
2022/01/19 05:26:50;;;;;;;2.30;1.80;;;;;;;-145.06;0.00;60892.56;4851088;28;20368;-88
2022/01/19 05:29:30;;;;;;;2.33;1.60;;;;;;;-145.06;0.00;60892.56;4852711;28;20904;-88
2022/01/19 05:32:09;;;;;;;2.73;1.73;;;;;;;-145.06;0.00;60892.56;4852849;28;20037;-88
2022/01/19 05:34:48;;;;;;;1.63;1.52;;;;;;;-145.06;0.00;60892.56;4858773;28;20040;-88
2022/01/19 05:37:27;;;;;;;2.37;2.10;;;;;;;-145.06;0.00;60892.56;4854451;28;20041;-87
2022/01/19 05:40:11;;;;;;;2.27;1.80;;;;;;;-145.06;0.00;60892.56;4854476;28;20277;-89
2022/01/19 05:42:50;;;;;;;2.22;1.70;;;;;;;-145.06;0.00;60892.56;4853681;28;20026;-89
2022/01/19 05:45:30;;;;;;;1.83;1.55;;;;;;;-145.06;0.00;60892.56;4856306;28;20037;-87
2022/01/19 05:48:09;;;;;;;2.25;1.70;;;;;;;-145.06;0.00;60892.56;4853933;28;20041;-88
2022/01/19 05:50:48;;;;;;;2.27;1.70;;;;;;;-145.06;0.00;60892.56;4857522;28;20042;-88
2022/01/19 05:53:27;;;;;;;1.87;1.57;;;;;;;-145.06;0.00;60892.56;4854292;28;20343;-89
2022/01/19 05:56:07;;;;;;;1.90;1.70;;;;;;;-145.06;0.00;60892.56;4854379;28;20281;-89
2022/01/19 05:58:46;;;;;;;;;;;;;;;-145.06;0.00;60892.56;4871640;28;20038;-88
2022/01/19 06:01:25;;;;;;;2.03;1.73;;;;;;;-145.06;0.00;60892.56;4845774;28;19917;-89
2022/01/19 06:04:04;;;;;;;1.77;1.63;;;;;;;-145.06;0.00;60892.56;4855457;28;20120;-88
2022/01/19 06:06:43;;;;;;;2.47;1.88;;;;;;;-145.06;0.00;60892.56;4855293;28;20369;-88
2022/01/19 06:12:20;;;;;;;2.00;1.70;;;;;;;-145.06;0.00;60892.56;4856215;28;20113;-88
2022/01/19 06:15:00;;;;;;;2.43;1.90;;;;;;;-145.06;0.00;60892.56;4857273;28;20124;-88
2022/01/19 06:17:39;;;;;;;;;;;;;;;-145.06;0.00;60892.56;4853341;28;20121;-88
2022/01/19 06:20:18;;;;;;;2.05;1.70;;;;;;;-145.06;0.00;60892.56;4885006;28;19913;-89
2022/01/19 06:22:57;;;;;;;1.75;1.63;;;;;;;-145.06;0.00;60892.56;4855872;28;20450;-89
2022/01/19 06:25:36;;;;;;;1.77;1.53;;;;;;;-145.06;0.00;60892.56;4869617;28;20467;-87
2022/01/19 06:28:15;;;;;;;2.10;1.60;;;;;;;-145.06;0.00;60892.56;4855616;28;20815;-88
2022/01/19 06:30:54;;;;;;;2.70;2.00;;;;;;;-145.06;0.00;60892.56;4852975;28;20037;-88
2022/01/19 06:33:33;;;;;;;2.28;1.88;;;;;;;-145.06;0.00;60892.56;4871126;28;20041;-89
2022/01/19 06:36:12;;;;;;;2.37;2.00;;;;;;;-145.06;0.00;60892.56;4857728;28;20121;-88
2022/01/19 06:38:51;;;;;;;1.70;1.53;;;;;;;-145.06;0.00;60892.56;4854383;28;20264;-86
2022/01/19 06:41:30;;;;;;;2.15;1.73;;;;;;;-145.06;0.00;60892.56;4854116;28;20033;-88
2022/01/19 06:44:09;;;;;;;1.70;1.35;;;;;;;-145.06;0.00;60892.56;4877733;28;20558;-88
2022/01/19 06:46:48;;;;;;;2.00;1.60;;;;;;;-145.06;0.00;60892.56;4855478;28;20116;-87
2022/01/19 06:49:27;;;;;;;2.28;1.70;;;;;;;-145.06;0.00;60892.56;4856150;28;20029;-89
2022/01/19 06:52:06;;;;;;;1.85;1.63;;;;;;;-145.06;0.00;60892.56;4869251;28;20038;-88
2022/01/19 06:54:45;;;;;;;3.10;1.50;;;;;;;-145.06;0.00;60892.56;4850289;28;20037;-88
2022/01/19 06:57:24;;;;;;;2.22;1.88;;;;;;;10.68;0.00;60892.56;4850192;28;20037;-87
2022/01/19 07:00:05;;;;;;;2.13;1.87;;;;;;;10.68;0.00;60892.56;4851581;28;20041;-87
2022/01/19 07:02:44;;;;;;;1.90;1.73;;;;;;;-145.06;0.00;60892.56;4859449;28;20789;-88
2022/01/19 07:05:23;;;;;;;1.92;1.60;;;;;;;-145.06;0.00;60892.56;4849828;28;20037;-88
2022/01/19 07:08:03;;;;;;;1.70;1.60;;;;;;;-145.06;0.00;60892.56;4848897;28;20026;-88
2022/01/19 07:10:41;;;;;;;2.43;1.97;;;;;;;3.86;0.00;60892.56;4851264;28;20037;-88
2022/01/19 07:13:23;;;;;;;3.08;1.90;;;;;;;4.19;0.00;60892.56;4847642;28;20033;-87
2022/01/19 07:16:02;;;;;;;2.00;1.58;;;;;;;-145.06;0.00;60892.56;4853149;28;20471;-88
2022/01/19 07:18:41;;;;;;;2.50;1.83;;;;;;;-145.06;0.00;60892.56;4872816;28;20104;-88
2022/01/19 07:21:20;;;;;;;2.10;1.75;;;;;;;187.52;0.00;60892.56;4860818;28;20272;-88
2022/01/19 07:23:59;;;;;;;1.83;1.33;;;;;;;3.90;0.00;60892.56;4865770;28;20065;-88
2022/01/19 07:26:38;;;;;;;2.27;1.53;;;;;;;-145.06;0.00;60892.56;4854992;28;20025;-88
2022/01/19 07:29:17;;;;;;;2.30;1.77;;;;;;;-145.06;0.00;60892.56;4864571;28;20265;-89
2022/01/19 07:31:58;;;;;;;2.53;1.77;;;;;;;4.01;0.00;60892.56;4849452;28;20511;-89
2022/01/19 07:34:37;;;;;;;1.80;1.60;;;;;;;-145.06;0.00;60892.56;4850044;28;20320;-88
2022/01/19 07:37:16;;;;;;;1.80;1.58;;;;;;;4.03;0.00;60892.56;4852861;28;20112;-88
2022/01/19 07:39:57;;;;;;;1.93;1.60;;;;;;;-145.06;0.00;60892.56;4855014;28;20379;-88
2022/01/19 07:42:36;;;;;;;1.60;1.38;;;;;;;4.07;0.00;60892.56;4853086;28;20769;-88
2022/01/19 07:45:15;;;;;;;2.10;1.67;;;;;;;4.19;0.00;60892.56;4853585;28;20041;-88
2022/01/19 07:47:55;;;;;;;1.75;1.58;;;;;;;-145.06;0.00;60892.56;4854783;28;20029;-87
2022/01/19 07:50:34;;;;;;;1.70;1.40;;;;;;;21.08;0.00;60892.56;4856265;28;20033;-89
2022/01/19 07:53:13;;;;;;;1.80;1.50;;;;;;;-145.06;0.00;60892.56;4848417;28;20038;-87
2022/01/19 07:55:53;;;;;;;2.38;1.98;;;;;;;-145.06;0.00;60892.56;4851353;28;20269;-88
2022/01/19 07:58:32;;;;;;;1.65;1.55;;;;;;;-145.06;0.00;60892.56;4854640;28;20045;-88
2022/01/19 08:01:11;;;;;;;2.00;1.80;;;;;;;-145.06;0.00;60892.56;4854568;28;20037;-88
2022/01/19 08:03:50;;;;;;;1.90;1.67;;;;;;;-145.06;0.00;60892.56;4856553;28;20041;-89
2022/01/19 08:06:29;;;;;;;1.60;1.50;;;;;;;-145.06;0.00;60892.56;4857949;28;20032;-89
2022/01/19 08:09:08;;;;;;;2.00;1.80;;;;;;;-145.06;0.00;60892.56;4856710;28;20268;-89
2022/01/19 08:11:48;;;;;;;2.30;1.87;;;;;;;-145.06;0.00;60892.56;4854107;28;20083;-89
2022/01/19 08:14:27;;;;;;;1.73;1.60;;;;;;;-145.06;0.00;60892.56;4858264;28;20611;-88
2022/01/19 08:17:06;;;;;;;;;;;;;;;-145.06;0.00;60892.56;4859405;28;20272;-88
2022/01/19 08:19:47;;;;;;;1.30;1.20;;;;;;;-145.06;0.00;60892.56;4871401;28;19913;-87
2022/01/19 08:22:26;;;;;;;1.75;1.40;;;;;;;-145.06;0.00;60892.56;4857308;28;20033;-87
2022/01/19 08:25:06;;;;;;;1.73;1.63;;;;;;;-145.06;0.00;60892.56;4854293;28;20112;-89
2022/01/19 08:27:45;;;;;;;1.98;1.50;;;;;;;-145.06;0.00;60892.56;4857454;28;20280;-88
2022/01/19 08:30:24;;;;;;;2.28;1.88;;;;;;;-145.06;0.00;60892.56;4872625;28;20045;-88
2022/01/19 08:33:03;;;;;;;1.83;1.63;;;;;;;-145.06;0.00;60892.56;4855741;28;20061;-89
2022/01/19 08:35:42;;;;;;;2.30;1.80;;;;;;;-145.06;0.00;60892.56;4852442;28;20120;-89
2022/01/19 08:38:21;;;;;;;2.25;1.95;;;;;;;-145.06;0.00;60892.56;4857884;28;20025;-88
2022/01/19 08:41:00;;;;;;;2.20;1.83;;;;;;;-145.06;0.00;60892.56;4869940;28;20033;-89
2022/01/19 08:43:39;;;;;;;2.53;2.17;;;;;;;-145.06;0.00;60892.56;4854567;28;20029;-89
2022/01/19 08:46:18;;;;;;;2.03;1.80;;;;;;;-145.06;0.00;60892.56;4856821;28;20021;-89
2022/01/19 08:48:57;;;;;;;2.30;2.07;;;;;;;10.68;0.00;60892.56;4856577;28;20483;-88
2022/01/19 08:51:37;;;;;;;3.35;2.33;;;;;;;-145.06;0.00;60892.56;4855478;28;20623;-89
2022/01/19 08:54:16;;;;;;;2.25;1.92;;;;;;;-145.06;0.00;60892.56;4855044;28;20041;-89
2022/01/19 08:56:55;;;;;;;2.53;2.05;;;;;;;-145.06;0.00;60892.56;4855242;28;20373;-88
2022/01/19 08:59:35;;;;;;;2.75;1.95;;;;;;;-145.06;0.00;60892.56;4855189;28;20025;-89
2022/01/19 09:02:14;;;;;;;2.38;2.17;;;;;;;-145.06;0.00;60892.56;4855637;28;20479;-90
2022/01/19 09:04:52;;;;;;;3.37;2.67;;;;;;;-145.06;0.00;60892.56;4859527;28;20037;-89
2022/01/19 09:07:32;;;;;;;2.77;2.40;;;;;;;-145.06;0.00;60892.56;4864197;28;20618;-89
2022/01/19 09:10:12;;;;;;;2.65;2.33;;;;;;;-145.06;0.00;60892.56;4855314;28;20272;-90
2022/01/19 09:12:52;;;;;;;2.60;2.30;;;;;;;-145.06;0.00;60892.56;4856533;28;20038;-89
2022/01/19 09:15:31;;;;;;;2.72;2.53;;;;;;;-145.06;0.00;60892.56;4856018;28;20033;-88
2022/01/19 09:18:10;;;;;;;3.03;2.58;;;;;;;-145.06;0.00;60892.56;4856478;28;20038;-88
2022/01/19 09:20:49;;;;;;;2.83;2.50;;;;;;;-145.06;0.00;60892.56;4856756;28;20365;-89
2022/01/19 09:23:29;;;;;;;3.03;2.65;;;;;;;-145.06;0.00;60892.56;4854800;28;20025;-89
2022/01/19 09:26:08;;;;;;;3.38;2.83;;;;;;;-145.06;0.00;60892.56;4854698;28;20064;-88
2022/01/19 09:28:47;;;;;;;3.45;2.92;;;;;;;-145.06;0.00;60892.56;4858535;28;20029;-89
2022/01/19 09:31:26;;;;;;;3.22;2.88;;;;;;;-145.06;0.00;60892.56;4860254;28;20037;-88
2022/01/19 09:34:09;;;;;;;3.15;2.67;;;;;;;-145.06;0.00;60892.56;4851281;28;20602;-88
2022/01/19 09:36:48;;;;;;;2.70;2.50;;;;;;;-145.06;0.00;60892.56;4859526;28;20049;-89
2022/01/19 09:39:27;;;;;;;3.28;2.85;;;;;;;5.00;0.00;60892.56;4863230;28;20065;-89
2022/01/19 09:42:06;;;;;;;3.60;3.28;;;;;;;-145.06;0.00;60892.56;4857364;28;20030;-89
2022/01/19 09:44:46;;;;;;;4.03;3.15;;;;;;;-145.06;0.00;60892.56;4860149;28;20041;-89
2022/01/19 09:47:25;;;;;;;2.83;2.38;;;;;;;-145.06;0.00;60892.56;4859185;28;20030;-89
2022/01/19 09:50:05;;;;;;;3.35;2.85;;;;;;;-145.06;0.00;60892.56;4856067;28;20045;-88
2022/01/19 09:52:45;;;;;;;2.95;2.40;;;;;;;-145.06;0.00;60892.56;4859919;28;20033;-89
2022/01/19 09:55:24;;;;;;;3.47;2.67;;;;;;;-145.06;0.00;60892.56;4859462;28;20029;-89
2022/01/19 09:58:06;;;;;;;3.92;3.33;;;;;;;-145.06;0.00;60892.56;4858863;28;20030;-89
2022/01/19 10:00:45;;;;;;;3.67;2.92;;;;;;;-145.06;0.00;60892.56;4851238;28;20503;-88
2022/01/19 10:03:26;;;;;;;3.20;2.83;;;;;;;-145.06;0.00;60892.56;4850885;28;20057;-89
2022/01/19 10:06:12;;;;;;;3.67;3.08;;;;;;;21.08;0.00;60892.56;4858130;28;20629;-89
2022/01/19 10:08:54;;;;;;;4.30;3.80;;;;;;;-145.06;0.00;60892.56;4858521;28;20467;-89
2022/01/19 10:17:10;;;;;;;4.80;4.28;;;;;;;-145.06;0.00;60892.56;4858474;28;20036;-89
2022/01/19 10:19:49;;;;;;;4.47;4.05;;;;;;;-145.06;0.00;60892.56;4857859;28;20033;-89
2022/01/19 10:22:30;;;;;;;5.65;4.78;;;;;;;-145.06;0.00;60892.56;4854648;28;20380;-88
2022/01/19 10:25:08;;;;;;;5.68;5.05;;;;;;;-145.06;0.00;60892.56;4872117;28;20037;-89
2022/01/19 10:27:47;;;;;;;5.35;4.53;;;;;;;-145.06;0.00;60892.56;4857937;28;20026;-88
2022/01/19 10:30:26;;;;;;;4.68;4.18;;;;;;;10.68;0.00;60892.56;4858106;28;20030;-89
2022/01/19 10:33:05;;;;;;;4.87;4.37;;;;;;;-145.06;0.00;60892.56;4858060;28;20033;-89
2022/01/19 10:35:48;;;;;;;5.45;3.95;;;;;;;187.52;0.00;60892.56;4861516;28;20038;-89
2022/01/19 10:38:28;;;;;;;4.07;3.33;;;;;;;5.06;0.00;60892.56;4857160;28;20108;-89
2022/01/19 10:41:09;;;;;;;3.35;2.95;;;;;;;5.49;0.00;60892.56;4858471;28;20073;-90
2022/01/19 10:43:50;;;;;;;;;;;;;;;-145.06;0.00;60892.56;4858030;28;20120;-88
2022/01/19 10:46:39;;;;;;;3.28;2.80;;;;;;;-145.06;0.00;60892.56;4857112;28;20450;-87
2022/01/19 10:49:18;;;;;;;3.08;2.75;;;;;;;5.32;0.00;60892.56;4857751;28;20033;-88
2022/01/19 10:51:58;;;;;;;2.78;2.42;;;;;;;-145.06;0.00;60892.56;4867266;28;20033;-89
2022/01/19 10:54:38;;;;;;;2.70;2.50;;;;;;;-145.06;0.00;60892.56;4869700;28;20029;-89
2022/01/19 10:57:17;;;;;;;3.47;3.15;;;;;;;5.29;0.00;60892.56;4874667;28;20061;-89
2022/01/19 11:00:24;;;;;;;3.13;2.80;;;;;;;10.68;0.00;60892.56;4872399;28;20025;-90
2022/01/19 11:03:36;;;;;;;4.10;3.28;;;;;;;10.68;0.00;60892.56;4853455;28;20268;-89
2022/01/19 11:06:15;;;;;;;4.82;3.65;;;;;;;-145.06;0.00;60892.56;4862773;28;20045;-88
2022/01/19 11:08:54;;;;;;;4.97;3.63;;;;;;;5.39;0.00;60892.56;4858107;28;20065;-88
2022/01/19 11:11:33;;;;;;;4.07;3.67;;;;;;;-145.06;0.00;60892.56;4856187;28;20029;-89
2022/01/19 11:14:16;;;;;;;4.00;3.60;;;;;;;5.49;0.00;60892.56;4856336;28;20037;-88
2022/01/19 11:16:55;;;;;;;5.13;4.40;;;;;;;5.39;0.00;60892.56;4859094;28;20120;-89
2022/01/19 11:19:39;;;;;;;4.47;3.70;;;;;;;-145.06;0.00;60892.56;4856170;28;20025;-89
2022/01/19 11:22:46;;;;;;;3.83;3.30;;;;;;;-145.06;0.00;60892.56;4864464;28;20033;-88
2022/01/19 11:25:50;;;;;;;3.30;2.95;;;;;;;10.68;0.00;60892.56;4851582;28;20037;-89
2022/01/19 11:28:34;;;;;;;4.32;3.65;;;;;;;5.36;0.00;60892.56;4864956;28;20037;-89
2022/01/19 11:31:19;;;;;;;5.20;4.05;;;;;;;5.37;0.00;60892.56;4857411;28;20033;-89
2022/01/19 11:33:59;;;;;;;6.15;4.75;;;;;;;5.37;0.00;60892.56;4854924;28;20041;-89
2022/01/19 11:36:42;;;;;;;;;;;;;;;10.68;0.00;60892.56;4867523;28;20033;-88
2022/01/19 11:39:22;;;;;;;6.38;4.13;;;;;;;-145.06;0.00;60892.56;4861005;28;20538;-88
2022/01/19 11:42:05;;;;;;;7.32;5.55;;;;;;;5.38;0.00;60892.56;4856530;28;20049;-89
2022/01/19 11:44:44;;;;;;;7.88;5.65;;;;;;;-145.06;0.00;60892.56;4856744;28;20041;-89
2022/01/19 11:47:29;;;;;;;6.85;5.00;;;;;;;-145.06;0.00;60892.56;4856025;28;20029;-88
2022/01/19 11:50:18;;;;;;;7.75;6.03;;;;;;;5.49;0.00;60892.56;4871235;28;20041;-89
2022/01/19 11:53:06;;;;;;;7.43;5.68;;;;;;;5.49;0.00;60892.56;4857809;28;20360;-89
2022/01/19 11:56:03;;;;;;;8.60;6.43;;;;;;;10.68;0.00;60892.56;4865797;28;20127;-89
2022/01/19 11:59:02;;;;;;;9.27;6.03;;;;;;;21.08;0.00;60892.56;4882818;28;20029;-89
2022/01/19 12:01:41;;;;;;;8.60;6.50;;;;;;;5.41;0.00;60892.56;4858060;28;20017;-90
2022/01/19 12:04:22;;;;;;;8.23;6.40;;;;;;;5.49;0.00;60892.56;4860299;28;20363;-89
2022/01/19 12:07:01;;;;;;;8.48;6.53;;;;;;;-145.06;0.00;60892.56;4880180;28;20029;-89
2022/01/19 12:09:56;;;;;;;11.27;7.30;;;;;;;-145.06;0.00;60892.56;4858638;28;20033;-90
2022/01/19 12:12:43;;;;;;;7.90;5.82;;;;;;;5.37;0.00;60892.56;4851589;28;20029;-90
2022/01/19 12:15:53;;;;;;;7.45;5.32;;;;;;;10.68;0.00;60892.56;4859188;28;20368;-90
2022/01/19 12:18:41;;;;;;;7.05;5.40;;;;;;;5.37;0.00;60892.56;4866540;28;20037;-90
2022/01/19 12:21:20;;;;;;;8.20;6.05;;;;;;;10.68;0.00;60892.56;4857369;28;20029;-91
2022/01/19 12:24:12;;;;;;;10.75;7.68;;;;;;;-145.06;0.00;60892.56;4842778;28;20037;-90
2022/01/19 12:26:57;;;;;;;9.35;6.53;;;;;;;10.68;0.00;60892.56;4855477;28;20034;-90
2022/01/19 12:29:36;;;;;;;12.68;9.20;;;;;;;10.68;0.00;60892.56;4857967;28;20033;-90
2022/01/19 12:32:15;;;;;;;12.07;8.37;;;;;;;10.68;0.00;60892.56;4857277;28;20511;-90
2022/01/19 12:35:19;;;;;;;9.87;7.03;;;;;;;5.32;0.00;60892.56;4855850;28;20037;-90
2022/01/19 12:38:00;;;;;;;11.07;7.53;;;;;;;-145.06;0.00;60892.56;4855440;28;20276;-90
2022/01/19 12:40:42;;;;;;;11.43;7.53;;;;;;;-145.06;0.00;60892.56;4856281;28;20372;-89
2022/01/19 12:43:32;;;;;;;11.02;7.15;;;;;;;10.68;0.00;60892.56;4857139;28;20041;-89
2022/01/19 12:46:12;;;;;;;9.13;6.63;;;;;;;-145.06;0.00;60892.56;4876619;28;20060;-90
2022/01/19 12:48:55;;;;;;;8.40;6.13;;;;;;;-145.06;0.00;60892.56;4857393;28;20356;-89
2022/01/19 12:51:40;;;;;;;8.38;5.90;;;;;;;5.49;0.00;60892.56;4858143;28;20040;-90
2022/01/19 12:54:26;;;;;;;7.72;5.95;;;;;;;-145.06;0.00;60892.56;4856475;28;20041;-90
2022/01/19 12:57:06;;;;;;;9.10;6.90;;;;;;;-145.06;0.00;60892.56;4857676;28;20037;-89
2022/01/19 12:59:49;;;;;;;8.65;6.50;;;;;;;-145.06;0.00;60892.56;4856372;28;20108;-89
2022/01/19 13:02:29;;;;;;;8.30;5.90;;;;;;;10.68;0.00;60892.56;4861914;28;20376;-91
2022/01/19 13:05:09;;;;;;;;;;;;;;;5.39;0.00;60892.56;4856334;28;20038;-90
2022/01/19 13:07:53;;;;;;;8.02;5.97;;;;;;;5.38;0.00;60892.56;4859073;28;19921;-90
2022/01/19 13:13:18;;;;;;;7.88;5.55;;;;;;;187.52;0.00;60892.56;4857796;28;20507;-88
2022/01/19 13:15:59;;;;;;;8.38;6.43;;;;;;;-145.06;0.00;60892.56;4855305;28;20117;-89
2022/01/19 13:18:44;;;;;;;8.73;6.65;;;;;;;-145.06;0.00;60892.56;4858510;28;20032;-89
2022/01/19 13:21:25;;;;;;;8.65;6.45;;;;;;;-145.06;0.00;60892.56;4857045;28;20683;-90
2022/01/19 13:24:31;;;;;;;8.88;6.43;;;;;;;-145.06;0.00;60892.56;4852732;28;20029;-90
2022/01/19 13:27:10;;;;;;;7.97;5.80;;;;;;;-145.06;0.00;60892.56;4883935;28;20136;-91
2022/01/19 13:29:49;;;;;;;8.82;5.70;;;;;;;-145.06;0.00;60892.56;4853742;28;20033;-91
2022/01/19 13:32:28;;;;;;;8.07;5.70;;;;;;;-145.06;0.00;60892.56;4857676;28;20108;-91
2022/01/19 13:35:09;;;;;;;7.65;5.25;;;;;;;-145.06;0.00;60892.56;4868192;28;20112;-90
2022/01/19 13:37:54;;;;;;;7.57;5.80;;;;;;;5.46;0.00;60892.56;4862582;28;20025;-90
2022/01/19 13:40:33;;;;;;;7.75;5.72;;;;;;;5.45;0.00;60892.56;4864927;28;20037;-90
2022/01/19 13:43:18;;;;;;;7.83;5.90;;;;;;;5.49;0.00;60892.56;4860713;28;20034;-90
2022/01/19 13:46:02;;;;;;;8.20;5.93;;;;;;;5.41;0.00;60892.56;4855721;28;20030;-89
2022/01/19 13:48:45;;;;;;;6.03;5.03;;;;;;;5.39;0.00;60892.56;4852351;28;20022;-89
2022/01/19 13:51:26;;;;;;;8.63;5.95;;;;;;;-145.06;0.00;60892.56;4863181;28;20029;-90
2022/01/19 13:54:05;;;;;;;7.47;5.72;;;;;;;-145.06;0.00;60892.56;4867370;28;20033;-89
2022/01/19 13:56:44;;;;;;;6.32;4.97;;;;;;;5.36;0.00;60892.56;4854771;28;20451;-90
2022/01/19 13:59:24;;;;;;;7.95;6.40;;;;;;;5.34;0.00;60892.56;4855188;28;20372;-90
2022/01/19 14:02:13;;;;;;;11.65;6.68;;;;;;;21.08;0.00;60892.56;4854535;28;20033;-89
2022/01/19 14:04:54;;;;;;;8.20;6.30;;;;;;;5.30;0.00;60892.56;4859371;28;20033;-89
2022/01/19 14:07:33;;;;;;;7.47;5.88;;;;;;;5.29;0.00;60892.56;4855580;28;20471;-90